Columbus City, Iowa
Current Conditions -  °F | °C
As of 7:55 PM on Saturday 22 Nov 2014 (Local Time) from KMUT Reporting Station
Overcast Overcast  
Wind Chill: 13°   Ceiling: 2700
Heat Index: 13°   Visibility: 10mi
Dew Point: 10°   Wind: 13mph
Humidity: 82%   Direction: 170°S
Pressure: 29.78"   Gusts: NA
Location:  41.26°N, 91.37°W
Report Text: KMUT 230155Z AUTO 17011KT 10SM OVC027 13/10 A2978 RMK AO2
Loading
Personal Weather Stations






























Interactive Weather Map New forecast layout! Learn more

10-Day Weather Forecast

Advertisements
Track Severe Weather on mobile